sensor_id;sensor_type;location;lat;lon;timestamp;temperature;humidity
45060;DHT22;30799;49.060;9.312;2023-02-15T00:01:47;20.90;51.90
45060;DHT22;30799;49.060;9.312;2023-02-15T00:04:16;20.90;52.00
45060;DHT22;30799;49.060;9.312;2023-02-15T00:06:43;20.90;52.00
45060;DHT22;30799;49.060;9.312;2023-02-15T00:09:11;20.90;51.90
45060;DHT22;30799;49.060;9.312;2023-02-15T00:11:38;20.90;51.90
45060;DHT22;30799;49.060;9.312;2023-02-15T00:14:22;20.90;51.90
45060;DHT22;30799;49.060;9.312;2023-02-15T00:16:51;20.90;51.90
45060;DHT22;30799;49.060;9.312;2023-02-15T00:19:20;20.80;51.90
45060;DHT22;30799;49.060;9.312;2023-02-15T00:21:47;20.90;52.00
45060;DHT22;30799;49.060;9.312;2023-02-15T00:24:17;20.90;51.90
45060;DHT22;30799;49.060;9.312;2023-02-15T00:26:44;20.80;52.50
45060;DHT22;30799;49.060;9.312;2023-02-15T00:29:13;20.90;51.90
45060;DHT22;30799;49.060;9.312;2023-02-15T00:31:39;20.90;51.90
45060;DHT22;30799;49.060;9.312;2023-02-15T00:34:21;20.90;51.90
45060;DHT22;30799;49.060;9.312;2023-02-15T00:36:49;20.90;51.90
45060;DHT22;30799;49.060;9.312;2023-02-15T00:39:16;20.90;51.90
45060;DHT22;30799;49.060;9.312;2023-02-15T00:41:44;20.80;51.80
45060;DHT22;30799;49.060;9.312;2023-02-15T00:44:11;20.80;52.00
45060;DHT22;30799;49.060;9.312;2023-02-15T00:46:38;20.80;51.80
45060;DHT22;30799;49.060;9.312;2023-02-15T00:49:05;20.80;51.80
45060;DHT22;30799;49.060;9.312;2023-02-15T00:51:32;20.80;51.80
45060;DHT22;30799;49.060;9.312;2023-02-15T00:53:59;20.80;51.90
45060;DHT22;30799;49.060;9.312;2023-02-15T00:56:25;20.80;51.90
45060;DHT22;30799;49.060;9.312;2023-02-15T00:58:54;20.80;51.80
45060;DHT22;30799;49.060;9.312;2023-02-15T01:01:21;20.80;51.90
45060;DHT22;30799;49.060;9.312;2023-02-15T01:03:48;20.80;51.90
45060;DHT22;30799;49.060;9.312;2023-02-15T01:06:16;20.80;51.90
45060;DHT22;30799;49.060;9.312;2023-02-15T01:08:44;20.80;51.90
45060;DHT22;30799;49.060;9.312;2023-02-15T01:11:13;20.80;51.90
45060;DHT22;30799;49.060;9.312;2023-02-15T01:13:41;20.80;51.90
45060;DHT22;30799;49.060;9.312;2023-02-15T01:16:08;20.80;51.90
45060;DHT22;30799;49.060;9.312;2023-02-15T01:18:35;20.80;51.90
45060;DHT22;30799;49.060;9.312;2023-02-15T01:21:13;20.80;51.80
45060;DHT22;30799;49.060;9.312;2023-02-15T01:23:41;20.80;51.80
45060;DHT22;30799;49.060;9.312;2023-02-15T01:26:09;20.80;51.90
45060;DHT22;30799;49.060;9.312;2023-02-15T01:28:36;20.80;51.80
45060;DHT22;30799;49.060;9.312;2023-02-15T01:31:16;20.80;51.80
45060;DHT22;30799;49.060;9.312;2023-02-15T01:33:44;20.80;51.90
45060;DHT22;30799;49.060;9.312;2023-02-15T01:36:11;20.80;51.80
45060;DHT22;30799;49.060;9.312;2023-02-15T01:38:37;20.80;51.80
45060;DHT22;30799;49.060;9.312;2023-02-15T01:41:06;20.80;51.80
45060;DHT22;30799;49.060;9.312;2023-02-15T01:43:54;20.80;51.80
45060;DHT22;30799;49.060;9.312;2023-02-15T01:46:33;20.70;51.80
45060;DHT22;30799;49.060;9.312;2023-02-15T01:49:06;20.70;51.80
45060;DHT22;30799;49.060;9.312;2023-02-15T01:51:36;20.70;51.80
45060;DHT22;30799;49.060;9.312;2023-02-15T01:54:18;20.70;51.80
45060;DHT22;30799;49.060;9.312;2023-02-15T01:56:47;20.70;52.20
45060;DHT22;30799;49.060;9.312;2023-02-15T01:59:17;20.70;51.80
45060;DHT22;30799;49.060;9.312;2023-02-15T02:01:46;20.70;51.80
45060;DHT22;30799;49.060;9.312;2023-02-15T02:04:17;20.70;51.80
45060;DHT22;30799;49.060;9.312;2023-02-15T02:06:46;20.70;51.80
45060;DHT22;30799;49.060;9.312;2023-02-15T02:09:14;20.70;51.90
45060;DHT22;30799;49.060;9.312;2023-02-15T02:11:41;20.70;51.90
45060;DHT22;30799;49.060;9.312;2023-02-15T02:14:09;20.70;51.90
45060;DHT22;30799;49.060;9.312;2023-02-15T02:23:04;20.70;51.90
45060;DHT22;30799;49.060;9.312;2023-02-15T02:25:59;20.70;51.90
45060;DHT22;30799;49.060;9.312;2023-02-15T02:34:28;20.70;51.90
45060;DHT22;30799;49.060;9.312;2023-02-15T02:37:03;20.60;51.80
45060;DHT22;30799;49.060;9.312;2023-02-15T02:45:03;20.60;51.80
45060;DHT22;30799;49.060;9.312;2023-02-15T02:47:47;20.70;51.80
45060;DHT22;30799;49.060;9.312;2023-02-15T02:50:22;20.60;51.80
45060;DHT22;30799;49.060;9.312;2023-02-15T02:52:51;20.60;51.80
45060;DHT22;30799;49.060;9.312;2023-02-15T02:55:19;20.60;51.80
45060;DHT22;30799;49.060;9.312;2023-02-15T02:57:54;20.60;51.80
45060;DHT22;30799;49.060;9.312;2023-02-15T03:00:23;20.60;51.90
45060;DHT22;30799;49.060;9.312;2023-02-15T03:02:56;20.60;51.90
45060;DHT22;30799;49.060;9.312;2023-02-15T03:05:27;20.60;51.90
45060;DHT22;30799;49.060;9.312;2023-02-15T03:07:55;20.60;51.80
45060;DHT22;30799;49.060;9.312;2023-02-15T03:10:24;20.60;51.80
45060;DHT22;30799;49.060;9.312;2023-02-15T03:12:52;20.60;51.80
45060;DHT22;30799;49.060;9.312;2023-02-15T03:15:21;20.60;51.80
45060;DHT22;30799;49.060;9.312;2023-02-15T03:17:57;20.60;51.70
45060;DHT22;30799;49.060;9.312;2023-02-15T03:20:29;20.60;51.80
45060;DHT22;30799;49.060;9.312;2023-02-15T03:23:02;20.60;51.80
45060;DHT22;30799;49.060;9.312;2023-02-15T03:28:06;20.60;51.80
45060;DHT22;30799;49.060;9.312;2023-02-15T03:30:34;20.60;51.90
45060;DHT22;30799;49.060;9.312;2023-02-15T03:33:03;20.60;51.80
45060;DHT22;30799;49.060;9.312;2023-02-15T03:35:39;20.60;51.80
45060;DHT22;30799;49.060;9.312;2023-02-15T03:38:13;20.60;51.80
45060;DHT22;30799;49.060;9.312;2023-02-15T03:40:45;20.60;51.70
45060;DHT22;30799;49.060;9.312;2023-02-15T03:49:07;20.60;51.70
45060;DHT22;30799;49.060;9.312;2023-02-15T03:51:37;20.60;51.70
45060;DHT22;30799;49.060;9.312;2023-02-15T03:54:09;20.60;51.70
45060;DHT22;30799;49.060;9.312;2023-02-15T03:56:39;20.60;51.70
45060;DHT22;30799;49.060;9.312;2023-02-15T03:59:07;20.60;51.70
45060;DHT22;30799;49.060;9.312;2023-02-15T04:02:08;20.60;51.70
45060;DHT22;30799;49.060;9.312;2023-02-15T04:04:40;20.60;51.70
45060;DHT22;30799;49.060;9.312;2023-02-15T04:07:08;20.60;51.70
45060;DHT22;30799;49.060;9.312;2023-02-15T04:09:35;20.60;51.70
45060;DHT22;30799;49.060;9.312;2023-02-15T04:12:21;20.60;51.70
45060;DHT22;30799;49.060;9.312;2023-02-15T04:14:47;20.60;51.70
45060;DHT22;30799;49.060;9.312;2023-02-15T04:17:33;20.60;51.70
45060;DHT22;30799;49.060;9.312;2023-02-15T04:19:59;20.60;51.70
45060;DHT22;30799;49.060;9.312;2023-02-15T04:22:44;20.60;51.70
45060;DHT22;30799;49.060;9.312;2023-02-15T04:25:30;20.50;51.60
45060;DHT22;30799;49.060;9.312;2023-02-15T04:27:57;20.60;51.70
45060;DHT22;30799;49.060;9.312;2023-02-15T04:30:25;20.50;51.60
45060;DHT22;30799;49.060;9.312;2023-02-15T04:32:54;20.50;51.60
45060;DHT22;30799;49.060;9.312;2023-02-15T04:35:21;20.50;51.60
45060;DHT22;30799;49.060;9.312;2023-02-15T04:37:48;20.50;51.60
45060;DHT22;30799;49.060;9.312;2023-02-15T04:40:16;20.60;51.70
45060;DHT22;30799;49.060;9.312;2023-02-15T04:42:47;20.60;51.60
45060;DHT22;30799;49.060;9.312;2023-02-15T04:45:14;20.50;51.60
45060;DHT22;30799;49.060;9.312;2023-02-15T04:47:41;20.60;51.60
45060;DHT22;30799;49.060;9.312;2023-02-15T04:50:08;20.60;51.60
45060;DHT22;30799;49.060;9.312;2023-02-15T04:52:35;20.60;51.60
45060;DHT22;30799;49.060;9.312;2023-02-15T04:55:02;20.60;51.60
45060;DHT22;30799;49.060;9.312;2023-02-15T04:57:29;20.60;51.60
45060;DHT22;30799;49.060;9.312;2023-02-15T04:59:56;20.50;51.60
45060;DHT22;30799;49.060;9.312;2023-02-15T05:02:23;20.50;51.60
45060;DHT22;30799;49.060;9.312;2023-02-15T05:04:50;20.60;51.60
45060;DHT22;30799;49.060;9.312;2023-02-15T05:07:16;20.60;51.50
45060;DHT22;30799;49.060;9.312;2023-02-15T05:09:44;20.50;51.50
45060;DHT22;30799;49.060;9.312;2023-02-15T05:12:10;20.50;51.50
45060;DHT22;30799;49.060;9.312;2023-02-15T05:14:37;20.60;51.50
45060;DHT22;30799;49.060;9.312;2023-02-15T05:17:04;20.60;51.50
45060;DHT22;30799;49.060;9.312;2023-02-15T05:19:31;20.60;51.50
45060;DHT22;30799;49.060;9.312;2023-02-15T05:21:58;20.60;51.50
45060;DHT22;30799;49.060;9.312;2023-02-15T05:24:25;20.50;51.50
45060;DHT22;30799;49.060;9.312;2023-02-15T05:27:11;20.60;51.50
45060;DHT22;30799;49.060;9.312;2023-02-15T05:29:56;20.60;51.50
45060;DHT22;30799;49.060;9.312;2023-02-15T05:32:23;20.60;51.50
45060;DHT22;30799;49.060;9.312;2023-02-15T05:34:50;20.60;51.50
45060;DHT22;30799;49.060;9.312;2023-02-15T05:37:17;20.60;51.50
45060;DHT22;30799;49.060;9.312;2023-02-15T05:39:43;20.60;51.50
45060;DHT22;30799;49.060;9.312;2023-02-15T05:42:10;20.60;51.50
45060;DHT22;30799;49.060;9.312;2023-02-15T05:44:36;20.60;51.40
45060;DHT22;30799;49.060;9.312;2023-02-15T05:47:03;20.50;51.40
45060;DHT22;30799;49.060;9.312;2023-02-15T05:49:30;20.60;51.50
45060;DHT22;30799;49.060;9.312;2023-02-15T05:51:57;20.50;51.50
45060;DHT22;30799;49.060;9.312;2023-02-15T05:54:24;20.60;51.60
45060;DHT22;30799;49.060;9.312;2023-02-15T05:56:50;20.60;53.20
45060;DHT22;30799;49.060;9.312;2023-02-15T05:59:17;20.60;53.30
45060;DHT22;30799;49.060;9.312;2023-02-15T06:01:44;20.60;53.30
45060;DHT22;30799;49.060;9.312;2023-02-15T06:04:10;20.60;53.50
45060;DHT22;30799;49.060;9.312;2023-02-15T06:06:37;20.60;53.60
45060;DHT22;30799;49.060;9.312;2023-02-15T06:09:03;20.60;53.70
45060;DHT22;30799;49.060;9.312;2023-02-15T06:11:30;20.60;53.70
45060;DHT22;30799;49.060;9.312;2023-02-15T06:13:57;20.60;54.00
45060;DHT22;30799;49.060;9.312;2023-02-15T06:16:24;20.60;54.00
45060;DHT22;30799;49.060;9.312;2023-02-15T06:18:50;20.60;54.00
45060;DHT22;30799;49.060;9.312;2023-02-15T06:21:19;20.60;54.30
45060;DHT22;30799;49.060;9.312;2023-02-15T06:23:45;20.50;54.60
45060;DHT22;30799;49.060;9.312;2023-02-15T06:26:12;20.60;53.30
45060;DHT22;30799;49.060;9.312;2023-02-15T06:28:39;20.60;54.50
45060;DHT22;30799;49.060;9.312;2023-02-15T06:31:07;20.60;55.00
45060;DHT22;30799;49.060;9.312;2023-02-15T06:33:34;20.70;54.80
45060;DHT22;30799;49.060;9.312;2023-02-15T06:36:01;20.70;53.30
45060;DHT22;30799;49.060;9.312;2023-02-15T06:38:28;20.60;55.20
45060;DHT22;30799;49.060;9.312;2023-02-15T06:40:55;20.60;55.20
45060;DHT22;30799;49.060;9.312;2023-02-15T06:43:22;20.60;55.10
45060;DHT22;30799;49.060;9.312;2023-02-15T06:45:49;20.60;55.10
45060;DHT22;30799;49.060;9.312;2023-02-15T06:48:15;20.60;55.10
45060;DHT22;30799;49.060;9.312;2023-02-15T06:50:42;20.60;55.20
45060;DHT22;30799;49.060;9.312;2023-02-15T06:53:09;20.60;55.10
45060;DHT22;30799;49.060;9.312;2023-02-15T06:55:35;20.60;55.00
45060;DHT22;30799;49.060;9.312;2023-02-15T06:58:02;20.60;55.00
45060;DHT22;30799;49.060;9.312;2023-02-15T07:00:29;20.50;55.10
45060;DHT22;30799;49.060;9.312;2023-02-15T07:02:57;20.50;54.90
45060;DHT22;30799;49.060;9.312;2023-02-15T07:05:26;20.60;54.90
45060;DHT22;30799;49.060;9.312;2023-02-15T07:08:00;20.60;54.90
45060;DHT22;30799;49.060;9.312;2023-02-15T07:10:27;20.50;54.90
45060;DHT22;30799;49.060;9.312;2023-02-15T07:12:53;20.50;54.90
45060;DHT22;30799;49.060;9.312;2023-02-15T07:15:21;20.50;54.80
45060;DHT22;30799;49.060;9.312;2023-02-15T07:17:48;20.50;54.80
45060;DHT22;30799;49.060;9.312;2023-02-15T07:20:18;20.50;54.70
45060;DHT22;30799;49.060;9.312;2023-02-15T07:22:46;20.60;54.70
45060;DHT22;30799;49.060;9.312;2023-02-15T07:25:13;20.60;54.80
45060;DHT22;30799;49.060;9.312;2023-02-15T07:27:40;20.50;54.60
45060;DHT22;30799;49.060;9.312;2023-02-15T07:30:09;20.50;54.60
45060;DHT22;30799;49.060;9.312;2023-02-15T07:32:36;20.50;54.60
45060;DHT22;30799;49.060;9.312;2023-02-15T07:35:03;20.50;55.10
45060;DHT22;30799;49.060;9.312;2023-02-15T07:37:30;20.50;54.60
45060;DHT22;30799;49.060;9.312;2023-02-15T07:39:56;20.50;54.50
45060;DHT22;30799;49.060;9.312;2023-02-15T07:42:23;20.50;54.50
45060;DHT22;30799;49.060;9.312;2023-02-15T07:44:50;20.50;54.60
45060;DHT22;30799;49.060;9.312;2023-02-15T07:47:16;20.50;54.50
45060;DHT22;30799;49.060;9.312;2023-02-15T07:49:43;20.50;54.40
45060;DHT22;30799;49.060;9.312;2023-02-15T07:52:09;20.40;54.40
45060;DHT22;30799;49.060;9.312;2023-02-15T07:54:36;20.50;54.40
45060;DHT22;30799;49.060;9.312;2023-02-15T07:57:03;20.40;54.40
45060;DHT22;30799;49.060;9.312;2023-02-15T07:59:29;20.40;54.40
45060;DHT22;30799;49.060;9.312;2023-02-15T08:01:56;20.50;54.30
45060;DHT22;30799;49.060;9.312;2023-02-15T08:04:24;20.40;54.30
45060;DHT22;30799;49.060;9.312;2023-02-15T08:06:53;20.40;54.40
45060;DHT22;30799;49.060;9.312;2023-02-15T08:09:20;20.40;54.40
45060;DHT22;30799;49.060;9.312;2023-02-15T08:11:47;20.40;54.30
45060;DHT22;30799;49.060;9.312;2023-02-15T08:14:17;20.40;54.30
45060;DHT22;30799;49.060;9.312;2023-02-15T08:16:52;20.40;54.20
45060;DHT22;30799;49.060;9.312;2023-02-15T08:19:27;20.40;54.30
45060;DHT22;30799;49.060;9.312;2023-02-15T08:21:58;20.40;54.20
45060;DHT22;30799;49.060;9.312;2023-02-15T08:24:27;20.40;54.20
45060;DHT22;30799;49.060;9.312;2023-02-15T08:26:55;20.40;54.20
45060;DHT22;30799;49.060;9.312;2023-02-15T08:29:31;20.40;54.10
45060;DHT22;30799;49.060;9.312;2023-02-15T08:32:04;20.30;54.20
45060;DHT22;30799;49.060;9.312;2023-02-15T08:34:34;20.40;54.20
45060;DHT22;30799;49.060;9.312;2023-02-15T08:37:02;20.40;54.20
45060;DHT22;30799;49.060;9.312;2023-02-15T08:39:29;20.40;54.10
45060;DHT22;30799;49.060;9.312;2023-02-15T08:41:56;20.40;54.00
45060;DHT22;30799;49.060;9.312;2023-02-15T08:44:22;20.30;54.10
45060;DHT22;30799;49.060;9.312;2023-02-15T08:46:49;20.30;54.00
45060;DHT22;30799;49.060;9.312;2023-02-15T08:49:18;20.30;54.00
45060;DHT22;30799;49.060;9.312;2023-02-15T08:51:46;20.30;54.00
45060;DHT22;30799;49.060;9.312;2023-02-15T08:54:16;20.30;54.00
45060;DHT22;30799;49.060;9.312;2023-02-15T08:56:44;20.30;53.90
45060;DHT22;30799;49.060;9.312;2023-02-15T08:59:14;20.30;53.90
45060;DHT22;30799;49.060;9.312;2023-02-15T09:01:41;20.30;53.90
45060;DHT22;30799;49.060;9.312;2023-02-15T09:04:09;20.30;53.90
45060;DHT22;30799;49.060;9.312;2023-02-15T09:06:39;20.30;53.90
45060;DHT22;30799;49.060;9.312;2023-02-15T09:09:07;20.30;54.50
45060;DHT22;30799;49.060;9.312;2023-02-15T09:11:37;20.30;53.90
45060;DHT22;30799;49.060;9.312;2023-02-15T09:14:18;20.30;53.90
45060;DHT22;30799;49.060;9.312;2023-02-15T09:16:47;20.30;54.50
45060;DHT22;30799;49.060;9.312;2023-02-15T09:19:16;20.30;53.80
45060;DHT22;30799;49.060;9.312;2023-02-15T09:21:44;20.30;53.90
45060;DHT22;30799;49.060;9.312;2023-02-15T09:24:12;20.30;53.80
45060;DHT22;30799;49.060;9.312;2023-02-15T09:26:41;20.30;53.80
45060;DHT22;30799;49.060;9.312;2023-02-15T09:29:10;20.30;53.80
45060;DHT22;30799;49.060;9.312;2023-02-15T09:31:40;20.30;53.90
45060;DHT22;30799;49.060;9.312;2023-02-15T09:34:13;20.30;53.80
45060;DHT22;30799;49.060;9.312;2023-02-15T09:36:40;20.20;53.70
45060;DHT22;30799;49.060;9.312;2023-02-15T09:55:55;20.20;53.60
45060;DHT22;30799;49.060;9.312;2023-02-15T10:04:19;20.20;53.50
45060;DHT22;30799;49.060;9.312;2023-02-15T10:09:48;20.20;53.50
45060;DHT22;30799;49.060;9.312;2023-02-15T10:26:32;20.20;53.50
45060;DHT22;30799;49.060;9.312;2023-02-15T10:29:35;20.20;53.50
45060;DHT22;30799;49.060;9.312;2023-02-15T10:32:26;20.20;53.50
45060;DHT22;30799;49.060;9.312;2023-02-15T10:35:24;20.20;53.50
45060;DHT22;30799;49.060;9.312;2023-02-15T10:54:52;20.20;53.30
45060;DHT22;30799;49.060;9.312;2023-02-15T11:00:09;20.20;53.30
45060;DHT22;30799;49.060;9.312;2023-02-15T11:06:03;20.10;53.10
45060;DHT22;30799;49.060;9.312;2023-02-15T11:08:35;20.20;53.30
45060;DHT22;30799;49.060;9.312;2023-02-15T11:11:06;20.20;53.20
45060;DHT22;30799;49.060;9.312;2023-02-15T11:13:47;20.20;53.20
45060;DHT22;30799;49.060;9.312;2023-02-15T11:16:22;20.20;53.20
45060;DHT22;30799;49.060;9.312;2023-02-15T11:21:43;20.10;53.00
45060;DHT22;30799;49.060;9.312;2023-02-15T11:24:13;20.10;53.10
45060;DHT22;30799;49.060;9.312;2023-02-15T11:29:18;20.10;53.20
45060;DHT22;30799;49.060;9.312;2023-02-15T11:31:53;20.10;53.10
45060;DHT22;30799;49.060;9.312;2023-02-15T11:36:54;20.10;53.10
45060;DHT22;30799;49.060;9.312;2023-02-15T11:39:23;20.10;53.00
45060;DHT22;30799;49.060;9.312;2023-02-15T11:41:59;20.10;53.10
45060;DHT22;30799;49.060;9.312;2023-02-15T11:44:32;20.10;53.80
45060;DHT22;30799;49.060;9.312;2023-02-15T11:47:01;20.10;53.10
45060;DHT22;30799;49.060;9.312;2023-02-15T11:49:32;20.10;53.10
45060;DHT22;30799;49.060;9.312;2023-02-15T11:52:02;20.10;52.90
45060;DHT22;30799;49.060;9.312;2023-02-15T11:54:35;20.10;52.90
45060;DHT22;30799;49.060;9.312;2023-02-15T11:57:31;20.10;52.90
45060;DHT22;30799;49.060;9.312;2023-02-15T12:00:23;20.10;53.00
45060;DHT22;30799;49.060;9.312;2023-02-15T12:02:53;20.10;53.00
45060;DHT22;30799;49.060;9.312;2023-02-15T12:05:23;20.10;53.00
45060;DHT22;30799;49.060;9.312;2023-02-15T12:08:13;20.10;52.90
45060;DHT22;30799;49.060;9.312;2023-02-15T12:10:51;20.10;52.90
45060;DHT22;30799;49.060;9.312;2023-02-15T12:13:20;20.00;52.70
45060;DHT22;30799;49.060;9.312;2023-02-15T12:15:53;20.00;52.90
45060;DHT22;30799;49.060;9.312;2023-02-15T12:18:41;20.10;52.90
45060;DHT22;30799;49.060;9.312;2023-02-15T12:21:16;20.00;52.90
45060;DHT22;30799;49.060;9.312;2023-02-15T12:23:55;20.00;52.80
45060;DHT22;30799;49.060;9.312;2023-02-15T12:26:29;20.10;52.90
45060;DHT22;30799;49.060;9.312;2023-02-15T12:28:59;20.00;52.90
45060;DHT22;30799;49.060;9.312;2023-02-15T12:31:32;20.00;52.70
45060;DHT22;30799;49.060;9.312;2023-02-15T12:36:55;20.00;52.90
45060;DHT22;30799;49.060;9.312;2023-02-15T12:39:29;20.10;52.90
45060;DHT22;30799;49.060;9.312;2023-02-15T12:41:59;20.00;52.90
45060;DHT22;30799;49.060;9.312;2023-02-15T12:44:29;20.00;52.90
45060;DHT22;30799;49.060;9.312;2023-02-15T12:49:32;20.00;52.80
45060;DHT22;30799;49.060;9.312;2023-02-15T12:52:02;20.00;52.80
45060;DHT22;30799;49.060;9.312;2023-02-15T12:54:40;20.10;52.80
45060;DHT22;30799;49.060;9.312;2023-02-15T12:57:14;20.00;52.80
45060;DHT22;30799;49.060;9.312;2023-02-15T12:59:56;20.00;52.90
45060;DHT22;30799;49.060;9.312;2023-02-15T13:02:47;20.00;52.80
45060;DHT22;30799;49.060;9.312;2023-02-15T13:05:31;20.00;52.70
45060;DHT22;30799;49.060;9.312;2023-02-15T13:08:12;20.00;52.70
45060;DHT22;30799;49.060;9.312;2023-02-15T13:10:58;20.00;53.40
45060;DHT22;30799;49.060;9.312;2023-02-15T13:13:47;20.00;53.40
45060;DHT22;30799;49.060;9.312;2023-02-15T13:16:21;20.00;52.70
45060;DHT22;30799;49.060;9.312;2023-02-15T13:18:52;20.00;52.70
45060;DHT22;30799;49.060;9.312;2023-02-15T13:21:24;20.00;52.70
45060;DHT22;30799;49.060;9.312;2023-02-15T13:24:05;20.10;52.80
45060;DHT22;30799;49.060;9.312;2023-02-15T13:26:35;20.00;52.50
45060;DHT22;30799;49.060;9.312;2023-02-15T13:29:08;20.00;52.60
45060;DHT22;30799;49.060;9.312;2023-02-15T13:31:38;20.00;52.70
45060;DHT22;30799;49.060;9.312;2023-02-15T13:34:20;20.00;52.60
45060;DHT22;30799;49.060;9.312;2023-02-15T13:37:10;20.00;52.60
45060;DHT22;30799;49.060;9.312;2023-02-15T13:42:22;20.00;52.70
45060;DHT22;30799;49.060;9.312;2023-02-15T13:53:40;20.00;52.60
45060;DHT22;30799;49.060;9.312;2023-02-15T13:56:22;20.00;52.60
45060;DHT22;30799;49.060;9.312;2023-02-15T14:01:58;20.00;52.50
45060;DHT22;30799;49.060;9.312;2023-02-15T14:07:33;20.00;52.60
45060;DHT22;30799;49.060;9.312;2023-02-15T14:15:49;20.00;52.50
45060;DHT22;30799;49.060;9.312;2023-02-15T14:18:39;20.00;52.50
45060;DHT22;30799;49.060;9.312;2023-02-15T14:24:01;20.00;52.50
45060;DHT22;30799;49.060;9.312;2023-02-15T14:26:59;20.00;52.50
45060;DHT22;30799;49.060;9.312;2023-02-15T14:32:37;20.00;52.50
45060;DHT22;30799;49.060;9.312;2023-02-15T14:35:13;20.10;52.50
45060;DHT22;30799;49.060;9.312;2023-02-15T14:49:16;20.10;52.40
45060;DHT22;30799;49.060;9.312;2023-02-15T14:59:53;20.10;52.40
45060;DHT22;30799;49.060;9.312;2023-02-15T15:07:44;20.10;52.30
45060;DHT22;30799;49.060;9.312;2023-02-15T15:12:50;20.20;52.40
45060;DHT22;30799;49.060;9.312;2023-02-15T15:18:07;20.20;52.30
45060;DHT22;30799;49.060;9.312;2023-02-15T15:20:49;20.20;52.10
45060;DHT22;30799;49.060;9.312;2023-02-15T15:25:52;20.20;52.10
45060;DHT22;30799;49.060;9.312;2023-02-15T15:37:09;19.90;51.20
45060;DHT22;30799;49.060;9.312;2023-02-15T15:42:48;20.00;51.80
45060;DHT22;30799;49.060;9.312;2023-02-15T15:45:40;20.00;51.70
45060;DHT22;30799;49.060;9.312;2023-02-15T15:48:27;20.00;51.70
45060;DHT22;30799;49.060;9.312;2023-02-15T15:51:19;20.00;51.80
45060;DHT22;30799;49.060;9.312;2023-02-15T15:53:49;20.00;51.90
45060;DHT22;30799;49.060;9.312;2023-02-15T15:56:22;20.00;52.00
45060;DHT22;30799;49.060;9.312;2023-02-15T15:58:56;20.00;52.00
45060;DHT22;30799;49.060;9.312;2023-02-15T16:01:28;20.00;52.00
45060;DHT22;30799;49.060;9.312;2023-02-15T16:03:57;20.00;52.10
45060;DHT22;30799;49.060;9.312;2023-02-15T16:06:30;20.00;52.10
45060;DHT22;30799;49.060;9.312;2023-02-15T16:09:08;20.00;52.20
45060;DHT22;30799;49.060;9.312;2023-02-15T16:11:37;19.90;52.20
45060;DHT22;30799;49.060;9.312;2023-02-15T16:14:39;20.00;52.30
45060;DHT22;30799;49.060;9.312;2023-02-15T16:17:13;19.90;52.20
45060;DHT22;30799;49.060;9.312;2023-02-15T16:19:43;19.90;52.50
45060;DHT22;30799;49.060;9.312;2023-02-15T16:22:20;19.90;52.30
45060;DHT22;30799;49.060;9.312;2023-02-15T16:27:46;19.90;52.30
45060;DHT22;30799;49.060;9.312;2023-02-15T16:33:03;19.90;52.40
45060;DHT22;30799;49.060;9.312;2023-02-15T16:35:31;19.90;52.40
45060;DHT22;30799;49.060;9.312;2023-02-15T16:37:57;19.90;52.50
45060;DHT22;30799;49.060;9.312;2023-02-15T16:42:57;19.90;52.50
45060;DHT22;30799;49.060;9.312;2023-02-15T16:45:29;19.80;52.50
45060;DHT22;30799;49.060;9.312;2023-02-15T16:48:01;19.80;52.50
45060;DHT22;30799;49.060;9.312;2023-02-15T16:50:37;19.80;52.50
45060;DHT22;30799;49.060;9.312;2023-02-15T16:53:06;19.80;52.50
45060;DHT22;30799;49.060;9.312;2023-02-15T16:55:41;19.80;52.50
45060;DHT22;30799;49.060;9.312;2023-02-15T16:58:14;19.80;52.60
45060;DHT22;30799;49.060;9.312;2023-02-15T17:00:42;19.80;52.60
45060;DHT22;30799;49.060;9.312;2023-02-15T17:05:47;17.70;42.90
45060;DHT22;30799;49.060;9.312;2023-02-15T17:08:16;16.70;46.60
45060;DHT22;30799;49.060;9.312;2023-02-15T17:13:39;18.40;48.50
45060;DHT22;30799;49.060;9.312;2023-02-15T17:16:31;18.80;49.90
45060;DHT22;30799;49.060;9.312;2023-02-15T17:19:01;19.20;51.20
45060;DHT22;30799;49.060;9.312;2023-02-15T17:21:32;19.30;51.00
45060;DHT22;30799;49.060;9.312;2023-02-15T17:24:03;19.50;49.90
45060;DHT22;30799;49.060;9.312;2023-02-15T17:26:33;19.40;49.90
45060;DHT22;30799;49.060;9.312;2023-02-15T17:29:17;19.50;50.80
45060;DHT22;30799;49.060;9.312;2023-02-15T17:31:51;19.60;52.20
45060;DHT22;30799;49.060;9.312;2023-02-15T17:34:56;19.90;53.30
45060;DHT22;30799;49.060;9.312;2023-02-15T17:37:42;19.60;53.30
45060;DHT22;30799;49.060;9.312;2023-02-15T17:40:20;19.70;53.60
45060;DHT22;30799;49.060;9.312;2023-02-15T17:42:47;19.70;56.60
45060;DHT22;30799;49.060;9.312;2023-02-15T17:45:14;19.90;54.50
45060;DHT22;30799;49.060;9.312;2023-02-15T17:47:41;19.70;55.40
45060;DHT22;30799;49.060;9.312;2023-02-15T17:50:19;20.00;56.30
45060;DHT22;30799;49.060;9.312;2023-02-15T17:52:47;19.90;58.70
45060;DHT22;30799;49.060;9.312;2023-02-15T17:55:16;20.10;55.70
45060;DHT22;30799;49.060;9.312;2023-02-15T17:58:12;19.90;56.70
45060;DHT22;30799;49.060;9.312;2023-02-15T18:00:45;20.30;56.60
45060;DHT22;30799;49.060;9.312;2023-02-15T18:06:24;20.20;55.20
45060;DHT22;30799;49.060;9.312;2023-02-15T18:09:11;20.10;54.50
45060;DHT22;30799;49.060;9.312;2023-02-15T18:11:57;19.80;49.80
45060;DHT22;30799;49.060;9.312;2023-02-15T18:14:24;20.00;51.60
45060;DHT22;30799;49.060;9.312;2023-02-15T18:16:51;20.00;51.00
45060;DHT22;30799;49.060;9.312;2023-02-15T18:19:21;20.70;51.30
45060;DHT22;30799;49.060;9.312;2023-02-15T18:21:49;20.20;52.40
45060;DHT22;30799;49.060;9.312;2023-02-15T18:24:23;20.40;52.10
45060;DHT22;30799;49.060;9.312;2023-02-15T18:26:51;20.50;53.70
45060;DHT22;30799;49.060;9.312;2023-02-15T18:29:18;20.40;52.40
45060;DHT22;30799;49.060;9.312;2023-02-15T18:31:47;20.30;53.00
45060;DHT22;30799;49.060;9.312;2023-02-15T18:34:26;20.40;54.30
45060;DHT22;30799;49.060;9.312;2023-02-15T18:36:55;20.20;53.80
45060;DHT22;30799;49.060;9.312;2023-02-15T18:39:41;20.30;53.80
45060;DHT22;30799;49.060;9.312;2023-02-15T18:42:23;20.20;53.50
45060;DHT22;30799;49.060;9.312;2023-02-15T18:44:54;20.40;55.50
45060;DHT22;30799;49.060;9.312;2023-02-15T18:47:21;20.90;54.80
45060;DHT22;30799;49.060;9.312;2023-02-15T18:49:47;20.70;53.00
45060;DHT22;30799;49.060;9.312;2023-02-15T18:52:20;20.70;53.10
45060;DHT22;30799;49.060;9.312;2023-02-15T18:54:57;21.30;55.10
45060;DHT22;30799;49.060;9.312;2023-02-15T18:57:25;20.70;50.80
45060;DHT22;30799;49.060;9.312;2023-02-15T18:59:53;20.70;50.90
45060;DHT22;30799;49.060;9.312;2023-02-15T19:02:20;20.80;50.80
45060;DHT22;30799;49.060;9.312;2023-02-15T19:04:46;20.80;50.90
45060;DHT22;30799;49.060;9.312;2023-02-15T19:07:24;20.90;50.90
45060;DHT22;30799;49.060;9.312;2023-02-15T19:09:55;20.90;50.80
45060;DHT22;30799;49.060;9.312;2023-02-15T19:12:22;20.90;50.80